sensor_id;sensor_type;location;lat;lon;timestamp;temperature;humidity
20590;DHT22;10453;50.810;12.540;2023-07-13T00:03:32;19.50;99.90
20590;DHT22;10453;50.810;12.540;2023-07-13T00:07:52;19.40;99.90
20590;DHT22;10453;50.810;12.540;2023-07-13T00:12:23;19.20;99.90
20590;DHT22;10453;50.810;12.540;2023-07-13T00:16:41;19.20;99.90
20590;DHT22;10453;50.810;12.540;2023-07-13T00:21:01;19.20;99.90
20590;DHT22;10453;50.810;12.540;2023-07-13T00:25:23;19.10;99.90
20590;DHT22;10453;50.810;12.540;2023-07-13T00:29:45;19.10;99.90
20590;DHT22;10453;50.810;12.540;2023-07-13T00:34:03;19.20;99.90
20590;DHT22;10453;50.810;12.540;2023-07-13T00:38:20;19.10;99.90
20590;DHT22;10453;50.810;12.540;2023-07-13T00:42:37;19.00;99.90
20590;DHT22;10453;50.810;12.540;2023-07-13T00:46:54;18.90;99.90
20590;DHT22;10453;50.810;12.540;2023-07-13T00:51:14;18.90;99.90
20590;DHT22;10453;50.810;12.540;2023-07-13T00:55:33;18.70;99.90
20590;DHT22;10453;50.810;12.540;2023-07-13T00:59:55;18.70;99.90
20590;DHT22;10453;50.810;12.540;2023-07-13T01:04:14;18.60;99.90
20590;DHT22;10453;50.810;12.540;2023-07-13T01:08:31;18.50;99.90
20590;DHT22;10453;50.810;12.540;2023-07-13T01:12:49;18.50;99.90
20590;DHT22;10453;50.810;12.540;2023-07-13T01:17:09;18.40;99.90
20590;DHT22;10453;50.810;12.540;2023-07-13T01:21:29;18.40;99.90
20590;DHT22;10453;50.810;12.540;2023-07-13T01:25:47;18.40;99.90
20590;DHT22;10453;50.810;12.540;2023-07-13T01:30:04;18.20;99.90
20590;DHT22;10453;50.810;12.540;2023-07-13T01:34:22;18.20;99.90
20590;DHT22;10453;50.810;12.540;2023-07-13T01:38:39;18.10;99.90
20590;DHT22;10453;50.810;12.540;2023-07-13T01:43:00;18.10;99.90
20590;DHT22;10453;50.810;12.540;2023-07-13T01:47:17;18.10;99.90
20590;DHT22;10453;50.810;12.540;2023-07-13T01:51:34;18.20;99.90
20590;DHT22;10453;50.810;12.540;2023-07-13T01:55:52;18.20;99.90
20590;DHT22;10453;50.810;12.540;2023-07-13T02:00:10;18.10;99.90
20590;DHT22;10453;50.810;12.540;2023-07-13T02:04:28;17.90;99.90
20590;DHT22;10453;50.810;12.540;2023-07-13T02:08:45;17.80;99.90
20590;DHT22;10453;50.810;12.540;2023-07-13T02:13:05;17.90;99.90
20590;DHT22;10453;50.810;12.540;2023-07-13T02:17:22;17.90;99.90
20590;DHT22;10453;50.810;12.540;2023-07-13T02:21:40;17.60;99.90
20590;DHT22;10453;50.810;12.540;2023-07-13T02:25:58;17.50;99.90
20590;DHT22;10453;50.810;12.540;2023-07-13T02:30:15;17.40;99.90
20590;DHT22;10453;50.810;12.540;2023-07-13T02:34:33;17.50;99.90
20590;DHT22;10453;50.810;12.540;2023-07-13T02:38:50;17.50;99.90
20590;DHT22;10453;50.810;12.540;2023-07-13T02:43:07;17.50;99.90
20590;DHT22;10453;50.810;12.540;2023-07-13T02:47:25;17.50;99.90
20590;DHT22;10453;50.810;12.540;2023-07-13T02:51:42;17.60;99.90
20590;DHT22;10453;50.810;12.540;2023-07-13T02:55:59;17.70;99.90
20590;DHT22;10453;50.810;12.540;2023-07-13T03:00:17;17.70;99.90
20590;DHT22;10453;50.810;12.540;2023-07-13T03:04:36;17.60;99.90
20590;DHT22;10453;50.810;12.540;2023-07-13T03:08:53;17.50;99.90
20590;DHT22;10453;50.810;12.540;2023-07-13T03:13:10;17.50;99.90
20590;DHT22;10453;50.810;12.540;2023-07-13T03:17:27;17.40;99.90
20590;DHT22;10453;50.810;12.540;2023-07-13T03:21:45;17.50;99.90
20590;DHT22;10453;50.810;12.540;2023-07-13T03:26:12;17.50;99.90
20590;DHT22;10453;50.810;12.540;2023-07-13T03:30:30;17.60;99.90
20590;DHT22;10453;50.810;12.540;2023-07-13T03:34:47;17.60;99.90
20590;DHT22;10453;50.810;12.540;2023-07-13T03:39:05;17.60;99.90
20590;DHT22;10453;50.810;12.540;2023-07-13T03:43:25;17.40;99.90
20590;DHT22;10453;50.810;12.540;2023-07-13T03:47:42;17.40;99.90
20590;DHT22;10453;50.810;12.540;2023-07-13T03:51:59;17.30;99.90
20590;DHT22;10453;50.810;12.540;2023-07-13T03:56:18;17.30;99.90
20590;DHT22;10453;50.810;12.540;2023-07-13T04:00:36;17.30;99.90
20590;DHT22;10453;50.810;12.540;2023-07-13T04:04:53;17.30;99.90
20590;DHT22;10453;50.810;12.540;2023-07-13T04:09:10;17.30;99.90
20590;DHT22;10453;50.810;12.540;2023-07-13T04:13:27;17.20;99.90
20590;DHT22;10453;50.810;12.540;2023-07-13T04:17:45;17.30;99.90
20590;DHT22;10453;50.810;12.540;2023-07-13T04:22:02;17.40;99.90
20590;DHT22;10453;50.810;12.540;2023-07-13T04:26:19;17.40;99.90
20590;DHT22;10453;50.810;12.540;2023-07-13T04:30:38;17.50;99.90
20590;DHT22;10453;50.810;12.540;2023-07-13T04:34:55;17.50;99.90
20590;DHT22;10453;50.810;12.540;2023-07-13T04:39:14;17.40;99.90
20590;DHT22;10453;50.810;12.540;2023-07-13T04:43:32;17.30;99.90
20590;DHT22;10453;50.810;12.540;2023-07-13T04:47:49;17.30;99.90
20590;DHT22;10453;50.810;12.540;2023-07-13T04:52:07;17.10;99.90
20590;DHT22;10453;50.810;12.540;2023-07-13T04:56:24;17.10;99.90
20590;DHT22;10453;50.810;12.540;2023-07-13T05:00:41;16.90;99.90
20590;DHT22;10453;50.810;12.540;2023-07-13T05:04:59;16.90;99.90
20590;DHT22;10453;50.810;12.540;2023-07-13T05:09:16;16.90;99.90
20590;DHT22;10453;50.810;12.540;2023-07-13T05:13:33;17.20;99.90
20590;DHT22;10453;50.810;12.540;2023-07-13T05:17:51;17.70;99.90
20590;DHT22;10453;50.810;12.540;2023-07-13T05:22:08;18.00;99.90
20590;DHT22;10453;50.810;12.540;2023-07-13T05:26:25;18.20;99.90
20590;DHT22;10453;50.810;12.540;2023-07-13T05:30:47;18.40;99.90
20590;DHT22;10453;50.810;12.540;2023-07-13T05:35:05;18.70;99.90
20590;DHT22;10453;50.810;12.540;2023-07-13T05:39:22;18.90;99.90
20590;DHT22;10453;50.810;12.540;2023-07-13T05:43:40;19.10;99.90
20590;DHT22;10453;50.810;12.540;2023-07-13T05:47:57;19.20;99.90
20590;DHT22;10453;50.810;12.540;2023-07-13T05:52:14;19.20;99.90
20590;DHT22;10453;50.810;12.540;2023-07-13T05:56:31;18.80;99.90
20590;DHT22;10453;50.810;12.540;2023-07-13T06:00:59;18.60;99.90
20590;DHT22;10453;50.810;12.540;2023-07-13T06:05:17;18.50;99.90
20590;DHT22;10453;50.810;12.540;2023-07-13T06:09:34;18.50;99.90
20590;DHT22;10453;50.810;12.540;2023-07-13T06:13:52;18.60;99.90
20590;DHT22;10453;50.810;12.540;2023-07-13T06:18:09;18.80;99.90
20590;DHT22;10453;50.810;12.540;2023-07-13T06:22:26;19.00;99.90
20590;DHT22;10453;50.810;12.540;2023-07-13T06:26:44;19.10;99.90
20590;DHT22;10453;50.810;12.540;2023-07-13T06:31:04;19.30;99.90
20590;DHT22;10453;50.810;12.540;2023-07-13T06:35:22;19.60;99.90
20590;DHT22;10453;50.810;12.540;2023-07-13T06:39:40;19.90;99.90
20590;DHT22;10453;50.810;12.540;2023-07-13T06:43:57;20.30;99.90
20590;DHT22;10453;50.810;12.540;2023-07-13T06:48:15;20.30;99.90
20590;DHT22;10453;50.810;12.540;2023-07-13T06:52:32;20.40;99.90
20590;DHT22;10453;50.810;12.540;2023-07-13T06:56:50;20.60;99.90
20590;DHT22;10453;50.810;12.540;2023-07-13T07:01:08;20.70;99.90
20590;DHT22;10453;50.810;12.540;2023-07-13T07:05:25;20.60;99.90
20590;DHT22;10453;50.810;12.540;2023-07-13T07:09:43;20.50;99.90
20590;DHT22;10453;50.810;12.540;2023-07-13T07:14:00;20.60;99.90
20590;DHT22;10453;50.810;12.540;2023-07-13T07:18:17;20.60;99.90
20590;DHT22;10453;50.810;12.540;2023-07-13T07:22:34;20.80;99.90
20590;DHT22;10453;50.810;12.540;2023-07-13T07:26:52;21.00;99.90
20590;DHT22;10453;50.810;12.540;2023-07-13T07:31:12;21.00;99.90
20590;DHT22;10453;50.810;12.540;2023-07-13T07:35:32;21.20;99.90
20590;DHT22;10453;50.810;12.540;2023-07-13T07:39:55;21.40;99.90
20590;DHT22;10453;50.810;12.540;2023-07-13T07:44:15;21.10;99.90
20590;DHT22;10453;50.810;12.540;2023-07-13T07:48:32;21.20;99.90
20590;DHT22;10453;50.810;12.540;2023-07-13T07:52:49;20.80;99.90
20590;DHT22;10453;50.810;12.540;2023-07-13T07:57:07;21.40;99.90
20590;DHT22;10453;50.810;12.540;2023-07-13T08:01:28;23.20;99.90
20590;DHT22;10453;50.810;12.540;2023-07-13T08:05:48;23.20;99.90
20590;DHT22;10453;50.810;12.540;2023-07-13T08:10:25;24.50;99.90
20590;DHT22;10453;50.810;12.540;2023-07-13T08:14:43;24.80;94.90
20590;DHT22;10453;50.810;12.540;2023-07-13T08:19:09;25.10;92.60
20590;DHT22;10453;50.810;12.540;2023-07-13T08:23:26;24.90;94.00
20590;DHT22;10453;50.810;12.540;2023-07-13T08:27:43;25.60;91.20
20590;DHT22;10453;50.810;12.540;2023-07-13T08:32:00;25.70;87.90
20590;DHT22;10453;50.810;12.540;2023-07-13T08:36:18;26.60;86.70
20590;DHT22;10453;50.810;12.540;2023-07-13T08:40:35;26.40;89.20
20590;DHT22;10453;50.810;12.540;2023-07-13T08:45:02;27.40;89.70
20590;DHT22;10453;50.810;12.540;2023-07-13T08:49:22;26.00;80.10
20590;DHT22;10453;50.810;12.540;2023-07-13T08:53:45;24.30;89.50
20590;DHT22;10453;50.810;12.540;2023-07-13T08:58:11;23.40;87.70
20590;DHT22;10453;50.810;12.540;2023-07-13T09:02:35;23.00;90.10
20590;DHT22;10453;50.810;12.540;2023-07-13T09:07:11;23.00;88.00
20590;DHT22;10453;50.810;12.540;2023-07-13T09:11:34;23.10;91.50
20590;DHT22;10453;50.810;12.540;2023-07-13T09:15:53;23.20;90.70
20590;DHT22;10453;50.810;12.540;2023-07-13T09:20:26;24.50;91.10
20590;DHT22;10453;50.810;12.540;2023-07-13T09:29:16;24.90;91.00
20590;DHT22;10453;50.810;12.540;2023-07-13T09:33:35;24.10;84.50
20590;DHT22;10453;50.810;12.540;2023-07-13T09:37:55;25.10;82.90
20590;DHT22;10453;50.810;12.540;2023-07-13T09:42:19;27.00;71.80
20590;DHT22;10453;50.810;12.540;2023-07-13T09:46:44;26.60;73.30
20590;DHT22;10453;50.810;12.540;2023-07-13T09:51:12;24.90;74.80
20590;DHT22;10453;50.810;12.540;2023-07-13T09:55:34;25.00;73.90
20590;DHT22;10453;50.810;12.540;2023-07-13T09:59:53;26.50;76.90
20590;DHT22;10453;50.810;12.540;2023-07-13T10:04:12;25.70;72.10
20590;DHT22;10453;50.810;12.540;2023-07-13T10:08:35;27.70;67.70
20590;DHT22;10453;50.810;12.540;2023-07-13T10:12:52;27.90;73.30
20590;DHT22;10453;50.810;12.540;2023-07-13T10:17:13;27.60;62.10
20590;DHT22;10453;50.810;12.540;2023-07-13T10:21:39;28.10;58.80
20590;DHT22;10453;50.810;12.540;2023-07-13T10:26:00;26.80;62.00
20590;DHT22;10453;50.810;12.540;2023-07-13T10:30:24;26.50;61.70
20590;DHT22;10453;50.810;12.540;2023-07-13T10:34:45;25.50;69.20
20590;DHT22;10453;50.810;12.540;2023-07-13T10:39:05;25.00;68.10
20590;DHT22;10453;50.810;12.540;2023-07-13T10:43:43;26.00;70.10
20590;DHT22;10453;50.810;12.540;2023-07-13T10:48:01;27.40;63.00
20590;DHT22;10453;50.810;12.540;2023-07-13T10:52:42;29.70;61.20
20590;DHT22;10453;50.810;12.540;2023-07-13T10:57:18;30.50;59.20
20590;DHT22;10453;50.810;12.540;2023-07-13T11:06:17;29.90;64.70
20590;DHT22;10453;50.810;12.540;2023-07-13T11:15:12;27.30;64.10
20590;DHT22;10453;50.810;12.540;2023-07-13T11:19:38;27.20;64.00
20590;DHT22;10453;50.810;12.540;2023-07-13T11:24:04;26.30;62.30
20590;DHT22;10453;50.810;12.540;2023-07-13T11:28:41;25.40;64.90
20590;DHT22;10453;50.810;12.540;2023-07-13T11:37:29;25.10;69.70
20590;DHT22;10453;50.810;12.540;2023-07-13T11:41:55;25.70;66.00
20590;DHT22;10453;50.810;12.540;2023-07-13T11:46:25;28.10;59.50
20590;DHT22;10453;50.810;12.540;2023-07-13T11:50:43;29.60;63.80
20590;DHT22;10453;50.810;12.540;2023-07-13T11:55:15;30.20;54.00
20590;DHT22;10453;50.810;12.540;2023-07-13T11:59:36;30.10;54.60
20590;DHT22;10453;50.810;12.540;2023-07-13T12:03:55;29.40;55.30
20590;DHT22;10453;50.810;12.540;2023-07-13T12:08:15;28.30;54.60
20590;DHT22;10453;50.810;12.540;2023-07-13T12:12:48;28.20;54.00
20590;DHT22;10453;50.810;12.540;2023-07-13T12:17:25;29.50;65.20
20590;DHT22;10453;50.810;12.540;2023-07-13T12:21:44;28.30;56.20
20590;DHT22;10453;50.810;12.540;2023-07-13T12:26:03;26.50;57.70
20590;DHT22;10453;50.810;12.540;2023-07-13T12:30:29;29.00;60.40
20590;DHT22;10453;50.810;12.540;2023-07-13T12:34:57;28.10;55.40
20590;DHT22;10453;50.810;12.540;2023-07-13T12:39:28;29.30;54.30
20590;DHT22;10453;50.810;12.540;2023-07-13T12:43:47;29.90;53.70
20590;DHT22;10453;50.810;12.540;2023-07-13T12:48:14;28.20;50.80
20590;DHT22;10453;50.810;12.540;2023-07-13T12:52:34;26.90;52.40
20590;DHT22;10453;50.810;12.540;2023-07-13T12:56:53;27.10;54.40
20590;DHT22;10453;50.810;12.540;2023-07-13T13:01:13;29.30;51.80
20590;DHT22;10453;50.810;12.540;2023-07-13T13:05:32;29.80;54.20
20590;DHT22;10453;50.810;12.540;2023-07-13T13:09:51;30.80;48.10
20590;DHT22;10453;50.810;12.540;2023-07-13T13:14:08;29.20;47.40
20590;DHT22;10453;50.810;12.540;2023-07-13T13:18:26;26.90;50.50
20590;DHT22;10453;50.810;12.540;2023-07-13T13:22:43;28.60;53.50
20590;DHT22;10453;50.810;12.540;2023-07-13T13:27:00;30.40;54.20
20590;DHT22;10453;50.810;12.540;2023-07-13T13:31:19;30.20;49.30
20590;DHT22;10453;50.810;12.540;2023-07-13T13:35:36;31.80;43.00
20590;DHT22;10453;50.810;12.540;2023-07-13T13:39:53;30.60;43.50
20590;DHT22;10453;50.810;12.540;2023-07-13T13:44:24;29.00;47.10
20590;DHT22;10453;50.810;12.540;2023-07-13T13:48:42;29.00;48.40
20590;DHT22;10453;50.810;12.540;2023-07-13T13:52:59;27.90;47.40
20590;DHT22;10453;50.810;12.540;2023-07-13T13:57:19;27.00;48.30
20590;DHT22;10453;50.810;12.540;2023-07-13T14:01:37;28.90;46.70
20590;DHT22;10453;50.810;12.540;2023-07-13T14:05:55;29.50;43.90
20590;DHT22;10453;50.810;12.540;2023-07-13T14:10:16;29.60;44.00
20590;DHT22;10453;50.810;12.540;2023-07-13T14:14:35;30.20;42.90
20590;DHT22;10453;50.810;12.540;2023-07-13T14:18:52;30.60;43.70
20590;DHT22;10453;50.810;12.540;2023-07-13T14:23:10;29.80;48.20
20590;DHT22;10453;50.810;12.540;2023-07-13T14:27:27;29.60;44.30
20590;DHT22;10453;50.810;12.540;2023-07-13T14:31:44;29.70;44.10
20590;DHT22;10453;50.810;12.540;2023-07-13T14:36:03;29.10;46.60
20590;DHT22;10453;50.810;12.540;2023-07-13T14:40:31;28.20;45.90
20590;DHT22;10453;50.810;12.540;2023-07-13T14:44:48;28.60;48.70
20590;DHT22;10453;50.810;12.540;2023-07-13T14:54:02;29.50;48.40
20590;DHT22;10453;50.810;12.540;2023-07-13T14:58:20;30.60;43.90
20590;DHT22;10453;50.810;12.540;2023-07-13T15:02:40;30.50;41.90
20590;DHT22;10453;50.810;12.540;2023-07-13T15:07:00;31.60;44.10
20590;DHT22;10453;50.810;12.540;2023-07-13T15:11:18;31.30;41.70
20590;DHT22;10453;50.810;12.540;2023-07-13T15:15:36;31.90;46.60
20590;DHT22;10453;50.810;12.540;2023-07-13T15:19:55;31.20;41.50
20590;DHT22;10453;50.810;12.540;2023-07-13T15:24:13;29.20;42.90
20590;DHT22;10453;50.810;12.540;2023-07-13T15:28:31;27.70;44.70
20590;DHT22;10453;50.810;12.540;2023-07-13T15:32:48;29.30;45.40
20590;DHT22;10453;50.810;12.540;2023-07-13T15:37:14;30.20;42.90
20590;DHT22;10453;50.810;12.540;2023-07-13T15:41:33;30.00;43.30
20590;DHT22;10453;50.810;12.540;2023-07-13T15:45:51;29.50;45.60
20590;DHT22;10453;50.810;12.540;2023-07-13T15:50:21;28.60;43.20
20590;DHT22;10453;50.810;12.540;2023-07-13T15:54:40;29.10;44.70
20590;DHT22;10453;50.810;12.540;2023-07-13T15:58:57;28.60;45.60
20590;DHT22;10453;50.810;12.540;2023-07-13T16:03:15;28.20;44.70
20590;DHT22;10453;50.810;12.540;2023-07-13T16:07:32;27.70;44.90
20590;DHT22;10453;50.810;12.540;2023-07-13T16:11:50;27.30;45.80
20590;DHT22;10453;50.810;12.540;2023-07-13T16:16:09;26.80;47.00
20590;DHT22;10453;50.810;12.540;2023-07-13T16:20:29;26.60;47.10
20590;DHT22;10453;50.810;12.540;2023-07-13T16:24:46;26.60;46.60
20590;DHT22;10453;50.810;12.540;2023-07-13T16:29:04;26.30;46.30
20590;DHT22;10453;50.810;12.540;2023-07-13T16:33:27;26.40;49.40
20590;DHT22;10453;50.810;12.540;2023-07-13T16:37:45;25.40;48.00
20590;DHT22;10453;50.810;12.540;2023-07-13T16:42:18;24.90;48.90
20590;DHT22;10453;50.810;12.540;2023-07-13T16:46:36;24.60;48.10
20590;DHT22;10453;50.810;12.540;2023-07-13T16:50:55;24.80;49.30
20590;DHT22;10453;50.810;12.540;2023-07-13T16:55:15;25.10;48.40
20590;DHT22;10453;50.810;12.540;2023-07-13T16:59:34;25.30;49.00
20590;DHT22;10453;50.810;12.540;2023-07-13T17:03:51;25.50;49.20
20590;DHT22;10453;50.810;12.540;2023-07-13T17:08:22;25.40;50.00
20590;DHT22;10453;50.810;12.540;2023-07-13T17:12:41;25.20;48.70
20590;DHT22;10453;50.810;12.540;2023-07-13T17:16:59;25.10;49.90
20590;DHT22;10453;50.810;12.540;2023-07-13T17:21:17;24.70;50.60
20590;DHT22;10453;50.810;12.540;2023-07-13T17:25:34;24.60;49.80
20590;DHT22;10453;50.810;12.540;2023-07-13T17:29:55;24.50;49.80
20590;DHT22;10453;50.810;12.540;2023-07-13T17:34:24;24.30;50.10
20590;DHT22;10453;50.810;12.540;2023-07-13T17:43:00;24.10;50.90
20590;DHT22;10453;50.810;12.540;2023-07-13T17:47:24;24.10;51.00
20590;DHT22;10453;50.810;12.540;2023-07-13T17:51:43;24.10;51.80
20590;DHT22;10453;50.810;12.540;2023-07-13T17:56:05;24.00;52.50
20590;DHT22;10453;50.810;12.540;2023-07-13T18:00:22;23.90;51.90
20590;DHT22;10453;50.810;12.540;2023-07-13T18:04:58;23.80;52.50
20590;DHT22;10453;50.810;12.540;2023-07-13T18:09:19;23.80;51.70
20590;DHT22;10453;50.810;12.540;2023-07-13T18:13:50;23.80;51.80
20590;DHT22;10453;50.810;12.540;2023-07-13T18:18:09;23.80;52.90
20590;DHT22;10453;50.810;12.540;2023-07-13T18:22:28;23.80;52.40
20590;DHT22;10453;50.810;12.540;2023-07-13T18:26:48;23.50;53.90
20590;DHT22;10453;50.810;12.540;2023-07-13T18:31:14;23.30;53.50
20590;DHT22;10453;50.810;12.540;2023-07-13T18:35:33;23.20;53.60
20590;DHT22;10453;50.810;12.540;2023-07-13T18:39:52;23.10;54.60
20590;DHT22;10453;50.810;12.540;2023-07-13T18:44:10;23.00;55.70
20590;DHT22;10453;50.810;12.540;2023-07-13T18:48:31;22.90;56.30
20590;DHT22;10453;50.810;12.540;2023-07-13T18:52:49;22.70;56.20
20590;DHT22;10453;50.810;12.540;2023-07-13T18:57:06;22.50;57.30
20590;DHT22;10453;50.810;12.540;2023-07-13T19:01:32;22.40;57.00
20590;DHT22;10453;50.810;12.540;2023-07-13T19:05:53;22.20;58.10
20590;DHT22;10453;50.810;12.540;2023-07-13T19:10:30;22.10;57.80
20590;DHT22;10453;50.810;12.540;2023-07-13T19:14:49;22.10;59.00
20590;DHT22;10453;50.810;12.540;2023-07-13T19:19:14;22.00;58.60
20590;DHT22;10453;50.810;12.540;2023-07-13T19:23:43;22.00;59.20
20590;DHT22;10453;50.810;12.540;2023-07-13T19:28:19;21.90;59.90
20590;DHT22;10453;50.810;12.540;2023-07-13T19:32:41;21.70;61.50
20590;DHT22;10453;50.810;12.540;2023-07-13T19:37:11;21.70;59.80
20590;DHT22;10453;50.810;12.540;2023-07-13T19:41:36;21.70;60.40
20590;DHT22;10453;50.810;12.540;2023-07-13T19:45:54;21.60;61.90
20590;DHT22;10453;50.810;12.540;2023-07-13T19:50:13;21.60;61.80
20590;DHT22;10453;50.810;12.540;2023-07-13T19:54:35;21.60;62.10
20590;DHT22;10453;50.810;12.540;2023-07-13T19:58:52;21.60;62.90
20590;DHT22;10453;50.810;12.540;2023-07-13T20:03:10;21.60;62.20
20590;DHT22;10453;50.810;12.540;2023-07-13T20:07:29;21.50;62.20
20590;DHT22;10453;50.810;12.540;2023-07-13T20:11:50;21.40;62.90
20590;DHT22;10453;50.810;12.540;2023-07-13T20:16:13;21.40;64.40
20590;DHT22;10453;50.810;12.540;2023-07-13T20:20:34;21.40;65.20
20590;DHT22;10453;50.810;12.540;2023-07-13T20:25:14;21.30;67.60
20590;DHT22;10453;50.810;12.540;2023-07-13T20:29:34;21.20;66.90
20590;DHT22;10453;50.810;12.540;2023-07-13T20:34:15;21.10;67.80
20590;DHT22;10453;50.810;12.540;2023-07-13T20:39:01;21.00;70.20
20590;DHT22;10453;50.810;12.540;2023-07-13T20:43:19;20.90;69.20
20590;DHT22;10453;50.810;12.540;2023-07-13T20:47:37;20.70;73.60
20590;DHT22;10453;50.810;12.540;2023-07-13T20:51:55;20.50;72.80
20590;DHT22;10453;50.810;12.540;2023-07-13T20:56:16;20.40;76.30
20590;DHT22;10453;50.810;12.540;2023-07-13T21:00:41;20.20;80.10
20590;DHT22;10453;50.810;12.540;2023-07-13T21:05:15;20.10;77.80
20590;DHT22;10453;50.810;12.540;2023-07-13T21:09:33;19.90;80.40
20590;DHT22;10453;50.810;12.540;2023-07-13T21:13:51;19.80;83.00
20590;DHT22;10453;50.810;12.540;2023-07-13T21:18:23;19.50;89.00
20590;DHT22;10453;50.810;12.540;2023-07-13T21:22:41;19.40;92.50
20590;DHT22;10453;50.810;12.540;2023-07-13T21:26:59;19.30;97.60
20590;DHT22;10453;50.810;12.540;2023-07-13T21:31:33;19.00;99.90
20590;DHT22;10453;50.810;12.540;2023-07-13T21:35:55;18.80;99.90
20590;DHT22;10453;50.810;12.540;2023-07-13T21:40:15;18.70;99.90
20590;DHT22;10453;50.810;12.540;2023-07-13T21:44:33;18.70;99.90
20590;DHT22;10453;50.810;12.540;2023-07-13T21:48:50;18.50;99.90
20590;DHT22;10453;50.810;12.540;2023-07-13T21:57:33;18.40;99.90
20590;DHT22;10453;50.810;12.540;2023-07-13T22:01:51;18.40;99.90
20590;DHT22;10453;50.810;12.540;2023-07-13T22:06:23;18.30;99.90
20590;DHT22;10453;50.810;12.540;2023-07-13T22:10:40;18.10;99.90
20590;DHT22;10453;50.810;12.540;2023-07-13T22:14:58;18.00;99.90
20590;DHT22;10453;50.810;12.540;2023-07-13T22:19:17;17.90;99.90
20590;DHT22;10453;50.810;12.540;2023-07-13T22:23:35;17.80;99.90
20590;DHT22;10453;50.810;12.540;2023-07-13T22:27:52;17.70;99.90
20590;DHT22;10453;50.810;12.540;2023-07-13T22:32:10;17.50;99.90
20590;DHT22;10453;50.810;12.540;2023-07-13T22:36:31;17.40;99.90
20590;DHT22;10453;50.810;12.540;2023-07-13T22:40:48;17.30;99.90
20590;DHT22;10453;50.810;12.540;2023-07-13T22:45:08;17.20;99.90
20590;DHT22;10453;50.810;12.540;2023-07-13T22:49:32;17.10;99.90
20590;DHT22;10453;50.810;12.540;2023-07-13T22:53:50;17.10;99.90
20590;DHT22;10453;50.810;12.540;2023-07-13T22:58:08;16.90;99.90
20590;DHT22;10453;50.810;12.540;2023-07-13T23:02:25;16.70;99.90
20590;DHT22;10453;50.810;12.540;2023-07-13T23:06:43;16.60;99.90
20590;DHT22;10453;50.810;12.540;2023-07-13T23:11:01;16.50;99.90
20590;DHT22;10453;50.810;12.540;2023-07-13T23:15:19;16.50;99.90
20590;DHT22;10453;50.810;12.540;2023-07-13T23:19:37;16.40;99.90
20590;DHT22;10453;50.810;12.540;2023-07-13T23:23:54;16.30;99.90
20590;DHT22;10453;50.810;12.540;2023-07-13T23:28:12;16.00;99.90
20590;DHT22;10453;50.810;12.540;2023-07-13T23:32:30;15.90;99.90
20590;DHT22;10453;50.810;12.540;2023-07-13T23:36:47;15.90;99.90
20590;DHT22;10453;50.810;12.540;2023-07-13T23:41:12;15.70;99.90
20590;DHT22;10453;50.810;12.540;2023-07-13T23:45:30;15.70;99.90
20590;DHT22;10453;50.810;12.540;2023-07-13T23:49:48;15.70;99.90
20590;DHT22;10453;50.810;12.540;2023-07-13T23:54:11;15.50;99.90
20590;DHT22;10453;50.810;12.540;2023-07-13T23:58:28;15.30;99.90
